Omak, WA

10:10 PM PDT on August 21, 2014 (GMT -0700)
Omak | Change Station
CLOSE
Current Station
Airport
Location: Omak,
Elevation: 1302 ft
Nearby Weather Stations

Elev 1302 ft 48.46 °N, 119.52 °W | Updated 17 minutes ago

Heavy Rain
Heavy Rain Mist
58 °F
Feels Like 58 °F
N
5
Wind Variable Wind from North

Today
High -- | Low -- °F
--% Chance of Precip.
Yesterday
High -- | Low -- °F
Precip. -- in
6:00 AM 8:01 PM
Waning Crescent, 10% visible
Pressure 30.01 in
Visibility 3.0 miles
Clouds Overcast 6000 ft
Dew Point 56 °F
Humidity 93%
Rainfall 0.22 in
Snow Depth Not available.
UV 0 out of 12
Pollen 5.60 out of 12
Air Quality Not available.
Flu Activity Not available.
METAR KOMK 220453Z AUTO 01004KT 3SM +RA BR OVC060 14/13 A3002 RMK AO2 SLP161 P0018 T01440133

More Conditions Fewer Conditions

Pressure 30.01 in
Visibility 3.0 miles
Clouds Overcast 6000 ft
Dew Point 56 °F
Humidity 93%
Rainfall 0.22 in
Snow Depth Not available.
UV 0 out of 12
Pollen 5.60 out of 12
Air Quality Not available.
Flu Activity Not available.
METAR KOMK 220453Z AUTO 01004KT 3SM +RA BR OVC060 14/13 A3002 RMK AO2 SLP161 P0018 T01440133

More Conditions Fewer Conditions

10-Day Weather Forecast

Almanac

Astronomy

Aug. 21, 2014 Rise Set
Actual Time 6:00 AM PDT 8:01 PM PDT
Civil Twilight 5:26 AM PDT 8:34 PM PDT
Nautical Twilight 4:44 AM PDT 9:16 PM PDT
Astronomical Twilight 3:58 AM PDT 10:02 PM PDT
Moon 2:27 AM PDT (8/21) 5:39 PM PDT (8/21)
Length of Visible Light 15h 07m
Length of Day
14h 00m
Tomorrow will be 3m 16s shorter.
Waning Crescent, 10% of the Moon is Illuminated
Aug 22
Waning Crescent
Aug 25
New
Sep 2
First Quarter
Sep 8
Full
Sep 15
Last Quarter

Yesterday's Extremes

State Highs State Lows

Community

WunderPhotos

Upload Photos

1,746,131 photos uploaded!

Nearby

Snow Depth

Station Depth Elevation
Moses Mountain 1 in 5300 ft
Rainy Pass 0 in 4780 ft
Harts Pass 0 in 6500 ft
Swamp Creek 0 in 4000 ft
Sentinel Butte 0 in 4920 ft

Earthquake Activity

City Distance Mag. Time & Date
No recent earthquake activity has been reported nearby.
Minimum magnitude displayed is 2.5.

Coastal Water Temperatures

Place Temperature
No Stations Reporting

Nearby Weather Stations